createdAt,value
2023-08-27T00:00:34.245Z,15.05
2023-08-27T00:03:03.165Z,15.00
2023-08-27T00:05:33.345Z,14.97
2023-08-27T00:08:02.574Z,14.98
2023-08-27T00:10:31.583Z,15.02
2023-08-27T00:13:00.291Z,14.97
2023-08-27T00:15:29.012Z,15.02
2023-08-27T00:17:58.100Z,15.10
2023-08-27T00:20:26.899Z,15.12
2023-08-27T00:22:57.138Z,15.11
2023-08-27T00:25:25.977Z,15.07
2023-08-27T00:27:54.491Z,14.99
2023-08-27T00:30:23.611Z,14.96
2023-08-27T00:32:52.057Z,14.93
2023-08-27T00:35:20.965Z,14.90
2023-08-27T00:37:49.883Z,14.88
2023-08-27T00:40:20.155Z,14.83
2023-08-27T00:42:48.753Z,14.77
2023-08-27T00:45:17.277Z,14.78
2023-08-27T00:47:45.877Z,14.70
2023-08-27T00:50:14.554Z,14.79
2023-08-27T00:52:43.857Z,14.67
2023-08-27T00:55:12.469Z,14.69
2023-08-27T00:57:43.390Z,14.54
2023-08-27T01:00:13.134Z,14.46
2023-08-27T01:02:43.991Z,14.34
2023-08-27T01:05:13.872Z,14.31
2023-08-27T01:07:51.554Z,14.32
2023-08-27T01:10:45.590Z,14.12
2023-08-27T01:13:22.576Z,13.94
2023-08-27T01:15:59.540Z,13.92
2023-08-27T01:18:28.919Z,13.85
2023-08-27T01:20:58.883Z,13.83
2023-08-27T01:23:28.870Z,13.71
2023-08-27T01:25:58.290Z,13.63
2023-08-27T01:28:34.209Z,13.57
2023-08-27T01:31:09.025Z,13.51
2023-08-27T01:33:39.054Z,13.50
2023-08-27T01:36:08.699Z,13.47
2023-08-27T01:38:38.764Z,13.55
2023-08-27T01:41:27.263Z,13.44
2023-08-27T01:43:57.582Z,13.34
2023-08-27T01:46:26.119Z,13.34
2023-08-27T01:49:17.242Z,13.38
2023-08-27T01:51:46.097Z,13.39
2023-08-27T01:54:16.172Z,13.42
2023-08-27T01:56:44.778Z,13.51
2023-08-27T01:59:13.641Z,13.41
2023-08-27T02:01:42.250Z,13.42
2023-08-27T02:04:10.862Z,13.51
2023-08-27T02:06:39.547Z,13.49
2023-08-27T02:09:08.494Z,13.48
2023-08-27T02:11:38.609Z,13.42
2023-08-27T02:14:07.118Z,13.32
2023-08-27T02:16:37.146Z,13.29
2023-08-27T02:19:08.396Z,13.29
2023-08-27T02:21:37.059Z,13.27
2023-08-27T02:24:06.482Z,13.25
2023-08-27T02:26:38.641Z,13.19
2023-08-27T02:29:07.363Z,13.21
2023-08-27T02:31:37.238Z,13.21
2023-08-27T02:34:06.255Z,13.17
2023-08-27T02:36:36.282Z,13.15
2023-08-27T02:39:05.734Z,13.11
2023-08-27T02:41:39.632Z,13.10
2023-08-27T02:44:14.104Z,13.09
2023-08-27T02:46:46.008Z,13.11
2023-08-27T02:49:19.853Z,13.09
2023-08-27T02:51:48.729Z,13.08
2023-08-27T02:54:17.233Z,13.04
2023-08-27T02:56:45.785Z,13.01
2023-08-27T02:59:15.607Z,12.99
2023-08-27T03:02:04.294Z,12.97
2023-08-27T03:04:34.198Z,12.88
2023-08-27T03:07:02.754Z,12.86
2023-08-27T03:09:31.203Z,12.88
2023-08-27T03:11:59.744Z,12.88
2023-08-27T03:14:29.761Z,12.87
2023-08-27T03:16:58.386Z,12.90
2023-08-27T03:19:27.292Z,12.85
2023-08-27T03:21:56.149Z,12.80
2023-08-27T03:24:24.749Z,12.74
2023-08-27T03:26:54.776Z,12.69
2023-08-27T03:29:23.713Z,12.64
2023-08-27T03:31:53.916Z,12.58
2023-08-27T03:34:42.385Z,12.62
2023-08-27T03:37:11.166Z,12.64
2023-08-27T03:39:39.608Z,12.54
2023-08-27T03:42:08.138Z,12.46
2023-08-27T03:44:37.958Z,12.54
2023-08-27T03:47:07.954Z,12.60
2023-08-27T03:49:36.660Z,12.51
2023-08-27T03:52:06.062Z,12.54
2023-08-27T03:54:34.606Z,12.55
2023-08-27T03:57:03.095Z,12.52
2023-08-27T03:59:32.779Z,12.50
2023-08-27T04:02:03.733Z,12.52
2023-08-27T04:04:41.800Z,12.62
2023-08-27T04:07:11.009Z,12.48
2023-08-27T04:09:40.160Z,12.36
2023-08-27T04:12:09.291Z,12.36
2023-08-27T04:14:39.774Z,12.30
2023-08-27T04:17:08.875Z,12.28
2023-08-27T04:19:41.467Z,12.28
2023-08-27T04:22:09.993Z,12.34
2023-08-27T04:24:38.781Z,12.31
2023-08-27T04:27:08.565Z,12.47
2023-08-27T04:29:37.635Z,12.61
2023-08-27T04:32:08.112Z,12.61
2023-08-27T04:34:37.002Z,12.54
2023-08-27T04:37:07.053Z,12.48
2023-08-27T04:39:35.604Z,12.52
2023-08-27T04:42:07.063Z,12.47
2023-08-27T04:44:37.379Z,12.39
2023-08-27T04:47:06.637Z,12.37
2023-08-27T04:49:35.241Z,12.36
2023-08-27T04:52:07.339Z,12.42
2023-08-27T04:54:41.495Z,12.51
2023-08-27T04:57:10.028Z,12.59
2023-08-27T04:59:38.952Z,12.77
2023-08-27T05:02:10.754Z,12.88
2023-08-27T05:04:40.701Z,13.00
2023-08-27T05:07:09.485Z,12.99
2023-08-27T05:09:38.206Z,13.03
2023-08-27T05:12:09.263Z,13.19
2023-08-27T05:14:38.141Z,13.35
2023-08-27T05:17:06.938Z,13.50
2023-08-27T05:19:35.771Z,13.76
2023-08-27T05:22:06.858Z,13.86
2023-08-27T05:24:36.132Z,13.91
2023-08-27T05:27:05.196Z,14.00
2023-08-27T05:29:35.117Z,14.13
2023-08-27T05:32:05.312Z,14.28
2023-08-27T05:34:34.052Z,14.34
2023-08-27T05:37:03.361Z,14.45
2023-08-27T05:39:32.802Z,14.56
2023-08-27T05:42:02.218Z,14.64
2023-08-27T05:44:33.617Z,14.76
2023-08-27T05:47:03.572Z,14.81
2023-08-27T05:49:32.223Z,14.87
2023-08-27T05:52:02.435Z,15.04
2023-08-27T05:54:31.345Z,15.07
2023-08-27T05:57:00.429Z,15.19
2023-08-27T05:59:29.083Z,15.28
2023-08-27T06:01:59.338Z,15.40
2023-08-27T06:04:31.387Z,15.53
2023-08-27T06:07:03.428Z,15.57
2023-08-27T06:09:32.035Z,15.57
2023-08-27T06:12:00.733Z,15.57
2023-08-27T06:14:29.200Z,15.55
2023-08-27T06:16:57.694Z,15.47
2023-08-27T06:19:36.150Z,15.34
2023-08-27T06:22:16.842Z,15.31
2023-08-27T06:25:03.608Z,15.15
2023-08-27T06:27:32.813Z,15.00
2023-08-27T06:30:10.670Z,14.95
2023-08-27T06:32:39.579Z,14.91
2023-08-27T06:35:10.251Z,14.96
2023-08-27T06:37:40.080Z,15.00
2023-08-27T06:40:09.622Z,15.22
2023-08-27T06:42:38.141Z,15.44
2023-08-27T06:45:07.772Z,15.60
2023-08-27T06:47:36.512Z,15.56
2023-08-27T06:50:06.240Z,15.40
2023-08-27T06:52:35.067Z,15.10
2023-08-27T06:55:05.580Z,14.99
2023-08-27T06:57:35.009Z,14.81
2023-08-27T07:00:18.292Z,14.91
2023-08-27T07:02:47.286Z,15.03
2023-08-27T07:05:32.305Z,15.39
2023-08-27T07:08:01.078Z,15.47
2023-08-27T07:10:32.205Z,15.31
2023-08-27T07:13:03.108Z,15.19
2023-08-27T07:15:31.673Z,15.12
2023-08-27T07:18:00.724Z,15.04
2023-08-27T07:20:30.730Z,15.14
2023-08-27T07:23:01.774Z,15.11
2023-08-27T07:25:32.017Z,14.95
2023-08-27T07:28:00.761Z,14.98
2023-08-27T07:30:29.637Z,14.96
2023-08-27T07:32:58.225Z,15.17
2023-08-27T07:35:27.095Z,15.53
2023-08-27T07:37:55.569Z,15.81
2023-08-27T07:40:25.071Z,16.36
2023-08-27T07:42:55.462Z,16.65
2023-08-27T07:45:23.987Z,16.91
2023-08-27T07:47:52.615Z,17.08
2023-08-27T07:50:21.466Z,17.04
2023-08-27T07:52:51.095Z,16.94
2023-08-27T07:55:20.118Z,16.77
2023-08-27T07:57:48.632Z,16.82
2023-08-27T08:00:20.583Z,16.96
2023-08-27T08:03:01.343Z,17.67
2023-08-27T08:05:35.895Z,18.24
2023-08-27T08:08:05.598Z,18.36
2023-08-27T08:10:34.206Z,18.65
2023-08-27T08:13:02.728Z,19.55
2023-08-27T08:15:34.078Z,20.02
2023-08-27T08:18:03.659Z,20.28
2023-08-27T08:20:32.463Z,20.44
2023-08-27T08:23:05.779Z,20.69
2023-08-27T08:25:34.633Z,21.38
2023-08-27T08:28:04.339Z,21.75
2023-08-27T08:30:34.493Z,22.40
2023-08-27T08:33:03.978Z,23.47
2023-08-27T08:35:34.026Z,24.16
2023-08-27T08:38:02.772Z,24.34
2023-08-27T08:40:32.526Z,23.48
2023-08-27T08:43:01.451Z,23.60
2023-08-27T08:45:39.583Z,22.35
2023-08-27T08:48:08.749Z,21.72
2023-08-27T08:50:37.993Z,21.03
2023-08-27T08:53:15.376Z,20.63
2023-08-27T08:55:50.697Z,20.71
2023-08-27T08:58:55.119Z,20.82
2023-08-27T09:01:27.596Z,21.18
2023-08-27T09:03:57.547Z,21.26
2023-08-27T09:06:27.465Z,20.49
2023-08-27T09:08:57.928Z,19.97
2023-08-27T09:11:27.717Z,19.57
2023-08-27T09:13:59.188Z,19.35
2023-08-27T09:16:50.681Z,19.50
2023-08-27T09:19:19.516Z,19.38
2023-08-27T09:21:48.297Z,19.76
2023-08-27T09:24:17.558Z,19.61
2023-08-27T09:26:46.057Z,20.25
2023-08-27T09:29:15.774Z,20.98
2023-08-27T09:31:46.113Z,20.84
2023-08-27T09:34:17.515Z,20.75
2023-08-27T09:36:46.044Z,20.58
2023-08-27T09:39:14.963Z,20.72
2023-08-27T09:41:45.593Z,20.87
2023-08-27T09:44:16.374Z,20.91
2023-08-27T09:46:45.081Z,21.26
2023-08-27T09:49:13.532Z,21.60
2023-08-27T09:51:43.871Z,23.40
2023-08-27T09:54:16.845Z,25.20
2023-08-27T09:56:47.381Z,26.18
2023-08-27T09:59:18.133Z,27.11
2023-08-27T10:01:50.374Z,29.24
2023-08-27T10:04:20.486Z,31.25
2023-08-27T10:06:50.666Z,29.19
2023-08-27T10:09:21.788Z,28.97
2023-08-27T10:11:51.574Z,29.64
2023-08-27T10:14:21.891Z,30.77
2023-08-27T10:16:50.587Z,31.47
2023-08-27T10:19:19.690Z,31.83
2023-08-27T10:21:49.033Z,33.01
2023-08-27T10:24:20.280Z,32.26
2023-08-27T10:26:51.886Z,31.33
2023-08-27T10:29:25.518Z,28.16
2023-08-27T10:31:57.225Z,26.89
2023-08-27T10:34:29.445Z,26.88
2023-08-27T10:37:03.847Z,29.46
2023-08-27T10:39:35.966Z,29.83
2023-08-27T10:42:05.230Z,28.06
2023-08-27T10:44:34.806Z,30.94
2023-08-27T10:47:11.011Z,31.98
2023-08-27T10:49:41.370Z,29.32
2023-08-27T10:52:17.154Z,26.14
2023-08-27T10:54:50.989Z,26.46
2023-08-27T10:57:23.679Z,27.88
2023-08-27T10:59:53.889Z,26.14
2023-08-27T11:02:22.552Z,24.59
2023-08-27T11:04:53.130Z,22.93
2023-08-27T11:07:24.112Z,22.00
2023-08-27T11:09:56.239Z,21.52
2023-08-27T11:12:26.622Z,21.77
2023-08-27T11:14:57.450Z,26.45
2023-08-27T11:17:48.912Z,30.21
2023-08-27T11:20:24.219Z,32.18
2023-08-27T11:22:57.848Z,32.71
2023-08-27T11:25:30.991Z,34.33
2023-08-27T11:28:01.780Z,34.40
2023-08-27T11:30:31.528Z,34.57
2023-08-27T11:33:03.573Z,33.03
2023-08-27T11:35:32.623Z,33.44
2023-08-27T11:38:01.499Z,30.73
2023-08-27T11:40:32.798Z,30.86
2023-08-27T11:43:01.308Z,30.53
2023-08-27T11:45:33.682Z,32.92
2023-08-27T11:48:11.389Z,33.85
2023-08-27T11:50:44.181Z,31.45
2023-08-27T11:53:15.562Z,31.65
2023-08-27T11:55:48.264Z,31.46
2023-08-27T11:58:17.016Z,31.72
2023-08-27T12:00:50.039Z,30.84
2023-08-27T12:03:19.069Z,32.60
2023-08-27T12:05:47.639Z,31.17
2023-08-27T12:08:16.582Z,29.93
2023-08-27T12:10:46.098Z,31.60
2023-08-27T12:13:16.776Z,31.05
2023-08-27T12:15:45.737Z,31.06
2023-08-27T12:18:14.631Z,30.67
2023-08-27T12:20:43.433Z,32.12
2023-08-27T12:23:13.209Z,33.92
2023-08-27T12:25:49.263Z,35.81
2023-08-27T12:28:35.189Z,34.08
2023-08-27T12:31:03.873Z,32.15
2023-08-27T12:33:40.924Z,33.44
2023-08-27T12:36:10.330Z,35.40
2023-08-27T12:38:39.637Z,35.80
2023-08-27T12:41:08.100Z,34.99
2023-08-27T12:43:39.217Z,34.24
2023-08-27T12:46:10.809Z,35.12
2023-08-27T12:48:39.432Z,35.64
2023-08-27T12:51:07.991Z,36.40
2023-08-27T12:53:36.528Z,36.71
2023-08-27T12:56:07.781Z,33.03
2023-08-27T12:58:37.979Z,28.74
2023-08-27T13:01:06.472Z,26.34
2023-08-27T13:03:35.062Z,24.88
2023-08-27T13:06:03.618Z,24.35
2023-08-27T13:08:35.943Z,25.77
2023-08-27T13:11:04.690Z,28.72
2023-08-27T13:13:33.254Z,28.96
2023-08-27T13:16:03.372Z,28.06
2023-08-27T13:18:31.887Z,27.14
2023-08-27T13:21:00.637Z,25.85
2023-08-27T13:23:29.353Z,26.15
2023-08-27T13:25:58.142Z,24.86
2023-08-27T13:28:28.743Z,23.84
2023-08-27T13:31:03.584Z,23.27
2023-08-27T13:33:33.513Z,22.18
2023-08-27T13:36:02.128Z,20.53
2023-08-27T13:38:31.098Z,19.70
2023-08-27T13:41:00.099Z,18.59
2023-08-27T13:43:28.725Z,17.68
2023-08-27T13:45:57.389Z,17.37
2023-08-27T13:48:27.047Z,17.13
2023-08-27T13:50:58.292Z,17.06
2023-08-27T13:53:26.967Z,16.92
2023-08-27T13:55:56.086Z,16.62
2023-08-27T13:58:35.614Z,16.22
2023-08-27T14:01:05.031Z,15.82
2023-08-27T14:06:05.129Z,15.54
2023-08-27T14:08:37.543Z,15.39
2023-08-27T14:11:08.160Z,15.40
2023-08-27T14:13:39.579Z,15.28
2023-08-27T14:16:10.214Z,15.33
2023-08-27T14:18:39.521Z,16.58
2023-08-27T14:21:10.463Z,18.49
2023-08-27T14:23:40.253Z,19.96
2023-08-27T14:26:12.091Z,19.34
2023-08-27T14:28:41.135Z,19.99
2023-08-27T14:31:09.771Z,20.94
2023-08-27T14:33:38.343Z,21.94
2023-08-27T14:36:07.284Z,22.58
2023-08-27T14:38:37.732Z,22.85
2023-08-27T14:41:09.304Z,23.17
2023-08-27T14:43:38.076Z,23.62
2023-08-27T14:46:10.139Z,23.18
2023-08-27T14:48:41.414Z,22.97
2023-08-27T14:51:10.245Z,21.79
2023-08-27T14:53:40.146Z,20.99
2023-08-27T14:56:08.698Z,20.17
2023-08-27T14:58:37.275Z,19.53
2023-08-27T15:01:11.184Z,19.46
2023-08-27T15:03:39.964Z,19.35
2023-08-27T15:06:08.511Z,19.21
2023-08-27T15:08:40.075Z,18.72
2023-08-27T15:11:11.877Z,18.89
2023-08-27T15:13:40.659Z,19.29
2023-08-27T15:16:09.296Z,19.53
2023-08-27T15:18:38.102Z,19.34
2023-08-27T15:21:06.570Z,18.98
2023-08-27T15:23:35.451Z,18.78
2023-08-27T15:26:05.588Z,19.02
2023-08-27T15:28:34.296Z,19.33
2023-08-27T15:31:04.221Z,19.43
2023-08-27T15:33:44.230Z,19.53
2023-08-27T15:36:13.183Z,19.53
2023-08-27T15:38:43.298Z,19.41
2023-08-27T15:41:19.738Z,19.04
2023-08-27T15:43:48.824Z,19.10
2023-08-27T15:46:17.580Z,19.08
2023-08-27T15:48:46.186Z,19.14
2023-08-27T15:51:14.889Z,19.15
2023-08-27T15:53:43.422Z,19.12
2023-08-27T15:56:15.193Z,19.10
2023-08-27T15:58:47.354Z,19.06
2023-08-27T16:01:16.678Z,19.16
2023-08-27T16:03:46.030Z,19.23
2023-08-27T16:06:14.919Z,19.36
2023-08-27T16:08:45.603Z,19.57
2023-08-27T16:11:14.389Z,19.80
2023-08-27T16:13:43.108Z,19.90
2023-08-27T16:16:13.795Z,19.79
2023-08-27T16:18:42.622Z,19.63
2023-08-27T16:21:12.881Z,19.41
2023-08-27T16:23:41.621Z,19.22
2023-08-27T16:26:10.197Z,19.06
2023-08-27T16:28:38.861Z,18.84
2023-08-27T16:31:07.538Z,18.64
2023-08-27T16:33:37.408Z,18.55
2023-08-27T16:36:06.272Z,18.44
2023-08-27T16:38:34.820Z,18.28
2023-08-27T16:41:03.345Z,18.04
2023-08-27T16:43:31.955Z,17.89
2023-08-27T16:46:00.559Z,17.84
2023-08-27T16:48:29.162Z,17.80
2023-08-27T16:51:00.416Z,17.72
2023-08-27T16:53:29.032Z,17.70
2023-08-27T16:55:57.585Z,17.66
2023-08-27T16:58:26.137Z,17.63
2023-08-27T17:00:54.705Z,17.66
2023-08-27T17:03:23.507Z,17.63
2023-08-27T17:05:57.302Z,17.53
2023-08-27T17:08:28.299Z,17.50
2023-08-27T17:10:57.116Z,17.47
2023-08-27T17:13:25.716Z,17.38
2023-08-27T17:16:08.440Z,17.35
2023-08-27T17:18:37.285Z,17.24
2023-08-27T17:21:06.092Z,17.17
2023-08-27T17:23:38.097Z,17.09
2023-08-27T17:26:06.779Z,17.09
2023-08-27T17:28:35.596Z,16.97
2023-08-27T17:31:04.179Z,16.87
2023-08-27T17:33:32.706Z,16.87
2023-08-27T17:36:01.234Z,16.77
2023-08-27T17:38:30.851Z,16.74
2023-08-27T17:41:01.042Z,16.67
2023-08-27T17:43:29.724Z,16.61
2023-08-27T17:45:58.451Z,16.60
2023-08-27T17:48:27.014Z,16.55
2023-08-27T17:50:55.813Z,16.43
2023-08-27T17:53:24.828Z,16.31
2023-08-27T17:55:54.432Z,16.24
2023-08-27T17:58:25.143Z,16.26
2023-08-27T18:00:55.422Z,16.37
2023-08-27T18:03:26.657Z,16.58
2023-08-27T18:05:57.780Z,16.64
2023-08-27T18:08:26.269Z,16.45
2023-08-27T18:10:54.835Z,16.33
2023-08-27T18:13:25.327Z,16.10
2023-08-27T18:15:58.803Z,15.94
2023-08-27T18:18:28.772Z,15.80
2023-08-27T18:20:57.591Z,15.65
2023-08-27T18:23:26.129Z,15.61
2023-08-27T18:25:54.600Z,15.56
2023-08-27T18:28:24.433Z,15.58
2023-08-27T18:30:56.871Z,15.56
2023-08-27T18:33:25.744Z,15.50
2023-08-27T18:35:54.531Z,15.49
2023-08-27T18:38:23.271Z,15.47
2023-08-27T18:40:55.112Z,15.38
2023-08-27T18:43:25.269Z,15.37
2023-08-27T18:45:56.286Z,15.30
2023-08-27T18:48:24.870Z,15.24
2023-08-27T18:50:53.357Z,15.24
2023-08-27T18:53:22.062Z,15.16
2023-08-27T18:55:51.573Z,15.07
2023-08-27T18:58:20.419Z,14.98
2023-08-27T19:01:04.707Z,14.88
2023-08-27T19:03:33.399Z,14.72
2023-08-27T19:06:01.860Z,14.58
2023-08-27T19:08:31.874Z,14.56
2023-08-27T19:11:01.192Z,14.37
2023-08-27T19:13:31.368Z,14.27
2023-08-27T19:16:00.345Z,14.21
2023-08-27T19:18:30.196Z,14.16
2023-08-27T19:21:02.221Z,14.11
2023-08-27T19:23:32.763Z,14.01
2023-08-27T19:26:07.862Z,13.98
2023-08-27T19:28:44.518Z,14.01
2023-08-27T19:31:17.972Z,13.91
2023-08-27T19:33:48.079Z,13.94
2023-08-27T19:36:16.611Z,13.96
2023-08-27T19:38:46.241Z,13.83
2023-08-27T19:41:14.937Z,13.67
2023-08-27T19:43:44.238Z,13.62
2023-08-27T19:46:15.403Z,13.52
2023-08-27T19:48:44.043Z,13.48
2023-08-27T19:51:14.102Z,13.43
2023-08-27T19:53:43.257Z,13.41
2023-08-27T19:56:22.380Z,13.47
2023-08-27T19:58:51.118Z,13.52
2023-08-27T20:01:19.858Z,13.50
2023-08-27T20:03:48.670Z,13.43
2023-08-27T20:06:18.575Z,13.31
2023-08-27T20:08:47.286Z,13.17
2023-08-27T20:11:15.806Z,13.16
2023-08-27T20:13:46.780Z,13.17
2023-08-27T20:16:15.477Z,13.14
2023-08-27T20:18:44.281Z,13.15
2023-08-27T20:21:12.968Z,13.03
2023-08-27T20:23:43.092Z,12.99
2023-08-27T20:26:11.631Z,12.96
2023-08-27T20:28:40.440Z,12.97
2023-08-27T20:31:10.536Z,12.98
2023-08-27T20:33:39.507Z,12.99
2023-08-27T20:36:08.539Z,13.00
2023-08-27T20:38:39.920Z,12.96
2023-08-27T20:41:10.105Z,12.93
2023-08-27T20:43:40.308Z,12.92
2023-08-27T20:46:09.604Z,12.88
2023-08-27T20:48:38.157Z,12.84
2023-08-27T20:51:06.818Z,12.80
2023-08-27T20:53:37.360Z,12.78
2023-08-27T20:56:06.156Z,12.74
2023-08-27T20:58:36.284Z,12.69
2023-08-27T21:01:06.245Z,12.66
2023-08-27T21:03:35.793Z,12.68
2023-08-27T21:06:05.756Z,12.68
2023-08-27T21:08:35.409Z,12.67
2023-08-27T21:11:09.336Z,12.69
2023-08-27T21:13:40.761Z,12.69
2023-08-27T21:16:09.599Z,12.66
2023-08-27T21:18:38.247Z,12.76
2023-08-27T21:21:06.768Z,12.76
2023-08-27T21:23:36.341Z,12.81
2023-08-27T21:26:05.163Z,12.80
2023-08-27T21:28:34.653Z,12.73
2023-08-27T21:31:25.467Z,12.73
2023-08-27T21:33:54.683Z,12.70
2023-08-27T21:36:23.327Z,12.59
2023-08-27T21:39:09.113Z,12.56
2023-08-27T21:41:39.662Z,12.51
2023-08-27T21:44:08.642Z,12.47
2023-08-27T21:46:42.131Z,12.46
2023-08-27T21:49:12.604Z,12.37
2023-08-27T21:51:41.307Z,12.43
2023-08-27T21:54:10.076Z,12.38
2023-08-27T21:56:38.584Z,12.40
2023-08-27T21:59:08.302Z,12.45
2023-08-27T22:01:37.553Z,12.40
2023-08-27T22:04:08.095Z,12.32
2023-08-27T22:06:36.639Z,12.32
2023-08-27T22:09:06.950Z,12.47
2023-08-27T22:11:35.576Z,12.54
2023-08-27T22:14:04.472Z,12.53
2023-08-27T22:16:33.282Z,12.52
2023-08-27T22:19:13.113Z,12.51
2023-08-27T22:21:51.030Z,12.38
2023-08-27T22:24:19.583Z,12.31
2023-08-27T22:26:48.134Z,12.28
2023-08-27T22:29:16.764Z,12.22
2023-08-27T22:31:45.923Z,12.26
2023-08-27T22:34:15.304Z,12.25
2023-08-27T22:36:44.172Z,12.18
2023-08-27T22:39:14.397Z,12.14
2023-08-27T22:41:43.522Z,12.08
2023-08-27T22:44:13.143Z,12.05
2023-08-27T22:46:42.180Z,12.08
2023-08-27T22:49:10.874Z,12.09
2023-08-27T22:51:39.482Z,12.08
2023-08-27T22:54:09.003Z,12.01
2023-08-27T22:56:38.958Z,11.93
2023-08-27T22:59:07.557Z,11.95
2023-08-27T23:01:36.550Z,11.92
2023-08-27T23:04:06.050Z,11.83
2023-08-27T23:06:34.796Z,11.95
2023-08-27T23:09:03.556Z,11.95
2023-08-27T23:11:33.136Z,11.94
2023-08-27T23:14:03.089Z,11.95
2023-08-27T23:16:31.760Z,11.96
2023-08-27T23:19:00.530Z,11.83
2023-08-27T23:21:29.049Z,11.80
2023-08-27T23:23:57.786Z,11.87
2023-08-27T23:26:26.827Z,11.84
2023-08-27T23:28:55.622Z,11.89
2023-08-27T23:31:26.190Z,11.89
2023-08-27T23:33:55.316Z,11.80
2023-08-27T23:36:26.772Z,11.76
2023-08-27T23:38:55.336Z,11.71
2023-08-27T23:41:23.903Z,11.64
2023-08-27T23:43:52.579Z,11.64
2023-08-27T23:46:21.277Z,11.68
2023-08-27T23:48:51.497Z,11.72
2023-08-27T23:51:20.934Z,11.67
2023-08-27T23:53:49.409Z,11.61
2023-08-27T23:56:17.999Z,11.61
2023-08-27T23:58:46.580Z,11.58
